Overview Statistics Trail Chart Weather Telemetry Raw packets
 

This is the latest recevied weather packets stored in our database for station/object IZ7EXI-13. If no packets are shown the sender has not sent any weather packets the latest 10 day(s).

<< 24 25 26 27 28 29 30 >>
Time Temp. Humidity Pressure Rain* Wind** Luminosity Snow
1788210408 27.78° C 83% 1017.3 hPa - - - -
1788209541 27.78° C 83% 1017.3 hPa - - - -
1788209508 27.78° C 83% 1017.3 hPa - - - -
1788208607 27.78° C 82% 1017.2 hPa - - - -
1788207707 28.89° C 81% 1017.1 hPa - - - -
1788206807 28.33° C 82% 1017 hPa - - - -
1788205907 28.33° C 82% 1017 hPa - - - -
1788205007 28.33° C 82% 1017 hPa - - - -
1788204106 28.33° C 83% 1016.9 hPa - - - -
1788203341 28.33° C 82% 1016.8 hPa - - - -
1788203199 28.33° C 82% 1016.8 hPa - - - -
1788202619 28.33° C 82% 1016.6 hPa - - - -
1788202296 28.33° C 82% 1016.6 hPa - - - -
1788201436 28.89° C 78% 1016.5 hPa - - - -
1788201387 28.89° C 78% 1016.5 hPa - - - -
1788200484 29.44° C 76% 1016.4 hPa - - - -
1788199584 29.44° C 76% 1016.1 hPa - - - -
1788198694 29.44° C 74% 1015.8 hPa - - - -
1788197800 30° C 73% 1015.7 hPa - - - -
1788196883 30.56° C 71% 1015.8 hPa - - - -
1788195983 31.67° C 69% 1015.9 hPa - - - -
1788195082 32.78° C 66% 1016 hPa - - - -
1788194182 32.78° C 65% 1016 hPa - - - -
1788193282 32.78° C 67% 1015.9 hPa - - - -
1788192382 31.11° C 70% 1016 hPa - - - -

* Rain since midnight (hover to see other rain measurements)
** Current wind speed in m/s (hover to see current wind gust speed)